Terminal Aerodrome Forecast
Issued by NWS

Current Version | Previous Version | Text Only | Print | Product List | Glossary On
Versions: 1 2 3 4 5 6 7 8 9 10 11 12 13 14 15 16 17 18
000
FTUS45 KFGZ 010500
TAFPGA
TAF
KPGA 010535Z 0106/0206 16010KT P6SM BKN110
     FM011600 VRB06KT P6SM SCT150=

USA.gov is the U.S. government's official web portal to all federal, state and local government web resources and services.